createdAt,value
2018-09-13T00:01:38.000Z,100918
2018-09-13T00:03:38.000Z,100915
2018-09-13T00:05:38.000Z,100918
2018-09-13T00:07:38.000Z,100921
2018-09-13T00:08:38.000Z,100918
2018-09-13T00:10:22.000Z,100920
2018-09-13T00:11:38.000Z,100915
2018-09-13T00:13:38.000Z,100914
2018-09-13T00:15:07.000Z,100903
2018-09-13T00:16:38.000Z,100902
2018-09-13T00:18:38.000Z,100904
2018-09-13T00:19:38.000Z,100902
2018-09-13T00:21:38.000Z,100901
2018-09-13T00:23:38.000Z,100896
2018-09-13T00:25:38.000Z,100901
2018-09-13T00:26:38.000Z,100900
2018-09-13T00:28:22.000Z,100896
2018-09-13T00:29:38.000Z,100901
2018-09-13T00:30:38.000Z,100898
2018-09-13T00:32:22.000Z,100904
2018-09-13T00:33:38.000Z,100902
2018-09-13T00:35:38.000Z,100900
2018-09-13T00:37:38.000Z,100898
2018-09-13T00:39:38.000Z,100892
2018-09-13T00:41:22.000Z,100889
2018-09-13T00:42:38.000Z,100891
2018-09-13T00:43:38.000Z,100884
2018-09-13T00:45:38.000Z,100893
2018-09-13T00:47:37.000Z,100888
2018-09-13T00:49:07.000Z,100887
2018-09-13T00:50:37.000Z,100884
2018-09-13T00:51:37.000Z,100882
2018-09-13T00:53:37.000Z,100874
2018-09-13T00:55:37.000Z,100881
2018-09-13T00:57:37.000Z,100883
2018-09-13T00:58:37.000Z,100890
2018-09-13T01:00:37.000Z,100890
2018-09-13T01:01:37.000Z,100891
2018-09-13T01:03:37.000Z,100892
2018-09-13T01:05:37.000Z,100889
2018-09-13T01:06:37.000Z,100892
2018-09-13T01:08:37.000Z,100897
2018-09-13T01:09:37.000Z,100895
2018-09-13T01:11:37.000Z,100900
2018-09-13T01:13:37.000Z,100896
2018-09-13T01:15:22.000Z,100896
2018-09-13T01:16:37.000Z,100893
2018-09-13T01:17:37.000Z,100897
2018-09-13T01:19:37.000Z,100896
2018-09-13T01:21:22.000Z,100892
2018-09-13T01:22:37.000Z,100895
2018-09-13T01:24:22.000Z,100901
2018-09-13T01:25:37.000Z,100895
2018-09-13T01:26:37.000Z,100893
2018-09-13T01:27:37.000Z,100888
2018-09-13T01:28:37.000Z,100889
2018-09-13T01:30:37.000Z,100881
2018-09-13T01:31:37.000Z,100883
2018-09-13T01:33:37.000Z,100885
2018-09-13T01:35:37.000Z,100887
2018-09-13T01:37:37.000Z,100889
2018-09-13T01:39:37.000Z,100888
2018-09-13T01:41:37.000Z,100888
2018-09-13T01:42:37.000Z,100889
2018-09-13T01:44:37.000Z,100888
2018-09-13T01:45:37.000Z,100890
2018-09-13T01:47:37.000Z,100889
2018-09-13T01:49:37.000Z,100886
2018-09-13T01:51:37.000Z,100886
2018-09-13T01:52:37.000Z,100885
2018-09-13T01:54:37.000Z,100880
2018-09-13T01:56:37.000Z,100871
2018-09-13T01:57:37.000Z,100875
2018-09-13T01:59:22.000Z,100874
2018-09-13T02:00:37.000Z,100876
2018-09-13T02:01:37.000Z,100875
2018-09-13T02:03:37.000Z,100875
2018-09-13T02:04:37.000Z,100877
2018-09-13T02:06:37.000Z,100877
2018-09-13T02:08:37.000Z,100882
2018-09-13T02:10:37.000Z,100877
2018-09-13T02:12:37.000Z,100862
2018-09-13T02:14:37.000Z,100857
2018-09-13T02:15:37.000Z,100861
2018-09-13T02:16:37.000Z,100854
2018-09-13T02:17:37.000Z,100861
2018-09-13T02:19:37.000Z,100862
2018-09-13T02:21:22.000Z,100862
2018-09-13T02:22:37.000Z,100866
2018-09-13T02:24:37.000Z,100858
2018-09-13T02:25:37.000Z,100855
2018-09-13T02:27:22.000Z,100859
2018-09-13T02:28:37.000Z,100851
2018-09-13T02:30:37.000Z,100855
2018-09-13T02:31:37.000Z,100857
2018-09-13T02:33:37.000Z,100852
2018-09-13T02:35:37.000Z,100849
2018-09-13T02:36:37.000Z,100844
2018-09-13T02:38:37.000Z,100846
2018-09-13T02:40:37.000Z,100844
2018-09-13T02:42:37.000Z,100838
2018-09-13T02:44:22.000Z,100834
2018-09-13T02:45:37.000Z,100833
2018-09-13T02:47:22.000Z,100834
2018-09-13T02:48:37.000Z,100827
2018-09-13T02:49:37.000Z,100829
2018-09-13T02:51:22.000Z,100827
2018-09-13T02:52:37.000Z,100823
2018-09-13T02:54:22.000Z,100828
2018-09-13T02:55:37.000Z,100821
2018-09-13T02:57:37.000Z,100834
2018-09-13T02:59:37.000Z,100830
2018-09-13T03:01:37.000Z,100831
2018-09-13T03:03:37.000Z,100836
2018-09-13T03:04:37.000Z,100834
2018-09-13T03:06:37.000Z,100822
2018-09-13T03:07:37.000Z,100824
2018-09-13T03:09:37.000Z,100823
2018-09-13T03:11:37.000Z,100821
2018-09-13T03:12:37.000Z,100820
2018-09-13T03:14:37.000Z,100823
2018-09-13T03:16:37.000Z,100819
2018-09-13T03:18:22.000Z,100814
2018-09-13T03:19:37.000Z,100819
2018-09-13T03:21:37.000Z,100823
2018-09-13T03:23:37.000Z,100821
2018-09-13T03:25:22.000Z,100824
2018-09-13T03:26:37.000Z,100824
2018-09-13T03:28:37.000Z,100824
2018-09-13T03:29:37.000Z,100821
2018-09-13T03:31:37.000Z,100819
2018-09-13T03:32:37.000Z,100823
2018-09-13T03:34:37.000Z,100821
2018-09-13T03:36:37.000Z,100819
2018-09-13T03:37:37.000Z,100816
2018-09-13T03:38:37.000Z,100821
2018-09-13T03:40:37.000Z,100819
2018-09-13T03:42:37.000Z,100818
2018-09-13T03:44:37.000Z,100816
2018-09-13T03:46:22.000Z,100814
2018-09-13T03:47:37.000Z,100805
2018-09-13T03:49:37.000Z,100809
2018-09-13T03:51:37.000Z,100806
2018-09-13T03:52:37.000Z,100809
2018-09-13T03:54:37.000Z,100807
2018-09-13T03:56:37.000Z,100814
2018-09-13T03:57:37.000Z,100806
2018-09-13T03:59:23.000Z,100810
2018-09-13T04:00:38.000Z,100812
2018-09-13T04:02:38.000Z,100810
2018-09-13T04:03:38.000Z,100810
2018-09-13T04:04:38.000Z,100810
2018-09-13T04:06:38.000Z,100805
2018-09-13T04:08:38.000Z,100810
2018-09-13T04:10:23.000Z,100811
2018-09-13T04:11:38.000Z,100803
2018-09-13T04:13:38.000Z,100809
2018-09-13T04:14:38.000Z,100805
2018-09-13T04:15:38.000Z,100807
2018-09-13T04:17:38.000Z,100815
2018-09-13T04:19:23.000Z,100813
2018-09-13T04:20:38.000Z,100815
2018-09-13T04:22:38.000Z,100817
2018-09-13T04:24:38.000Z,100816
2018-09-13T04:26:38.000Z,100821
2018-09-13T04:28:38.000Z,100827
2018-09-13T04:29:38.000Z,100822
2018-09-13T04:31:38.000Z,100824
2018-09-13T04:33:38.000Z,100823
2018-09-13T04:34:38.000Z,100827
2018-09-13T04:36:38.000Z,100839
2018-09-13T04:38:38.000Z,100830
2018-09-13T04:40:38.000Z,100832
2018-09-13T04:42:38.000Z,100833
2018-09-13T04:43:38.000Z,100830
2018-09-13T04:45:38.000Z,100828
2018-09-13T04:47:38.000Z,100829
2018-09-13T04:49:38.000Z,100829
2018-09-13T04:51:38.000Z,100828
2018-09-13T04:53:38.000Z,100823
2018-09-13T04:54:38.000Z,100827
2018-09-13T04:56:23.000Z,100821
2018-09-13T04:57:38.000Z,100822
2018-09-13T04:59:38.000Z,100828
2018-09-13T05:01:22.000Z,100827
2018-09-13T05:02:37.000Z,100825
2018-09-13T05:03:37.000Z,100829
2018-09-13T05:05:22.000Z,100828
2018-09-13T05:06:37.000Z,100826
2018-09-13T05:08:37.000Z,100825
2018-09-13T05:09:37.000Z,100821
2018-09-13T05:11:37.000Z,100820
2018-09-13T05:13:22.000Z,100821
2018-09-13T05:14:37.000Z,100823
2018-09-13T05:16:37.000Z,100829
2018-09-13T05:18:37.000Z,100829
2018-09-13T05:20:37.000Z,100828
2018-09-13T05:21:37.000Z,100829
2018-09-13T05:23:37.000Z,100832
2018-09-13T05:25:37.000Z,100827
2018-09-13T05:27:37.000Z,100829
2018-09-13T05:29:37.000Z,100828
2018-09-13T05:30:37.000Z,100833
2018-09-13T05:31:37.000Z,100829
2018-09-13T05:33:37.000Z,100829
2018-09-13T05:35:37.000Z,100832
2018-09-13T05:36:37.000Z,100833
2018-09-13T05:37:37.000Z,100834
2018-09-13T05:39:37.000Z,100833
2018-09-13T05:40:37.000Z,100835
2018-09-13T05:41:37.000Z,100837
2018-09-13T05:43:37.000Z,100836
2018-09-13T05:44:37.000Z,100837
2018-09-13T05:46:37.000Z,100834
2018-09-13T05:48:22.000Z,100836
2018-09-13T05:49:37.000Z,100833
2018-09-13T05:51:37.000Z,100844
2018-09-13T05:52:37.000Z,100840
2018-09-13T05:54:37.000Z,100842
2018-09-13T05:55:37.000Z,100842
2018-09-13T05:56:37.000Z,100836
2018-09-13T05:58:37.000Z,100837
2018-09-13T06:00:06.000Z,100836
2018-09-13T06:01:37.000Z,100838
2018-09-13T06:03:37.000Z,100838
2018-09-13T06:05:37.000Z,100835
2018-09-13T06:06:37.000Z,100841
2018-09-13T06:08:37.000Z,100835
2018-09-13T06:10:37.000Z,100841
2018-09-13T06:11:37.000Z,100845
2018-09-13T06:12:37.000Z,100849
2018-09-13T06:14:22.000Z,100843
2018-09-13T06:15:37.000Z,100849
2018-09-13T06:16:37.000Z,100850
2018-09-13T06:18:37.000Z,100849
2018-09-13T06:19:37.000Z,100851
2018-09-13T06:21:37.000Z,100856
2018-09-13T06:22:37.000Z,100856
2018-09-13T06:24:37.000Z,100855
2018-09-13T06:26:37.000Z,100861
2018-09-13T06:27:37.000Z,100854
2018-09-13T06:29:37.000Z,100856
2018-09-13T06:31:37.000Z,100856
2018-09-13T06:33:37.000Z,100862
2018-09-13T06:35:37.000Z,100863
2018-09-13T06:36:59.000Z,100857
2018-09-13T06:38:59.000Z,100865
2018-09-13T06:39:59.000Z,100863
2018-09-13T06:41:59.000Z,100861
2018-09-13T06:42:59.000Z,100864
2018-09-13T06:43:59.000Z,100866
2018-09-13T06:45:44.000Z,100867
2018-09-13T06:46:59.000Z,100863
2018-09-13T06:47:59.000Z,100864
2018-09-13T06:49:44.000Z,100862
2018-09-13T06:50:59.000Z,100866
2018-09-13T06:52:44.000Z,100860
2018-09-13T06:53:59.000Z,100862
2018-09-13T06:55:59.000Z,100863
2018-09-13T06:56:59.000Z,100863
2018-09-13T06:57:59.000Z,100861
2018-09-13T06:59:59.000Z,100859
2018-09-13T07:01:59.000Z,100858
2018-09-13T07:03:59.000Z,100857
2018-09-13T07:05:59.000Z,100859
2018-09-13T07:07:59.000Z,100856
2018-09-13T07:09:59.000Z,100859
2018-09-13T07:11:44.000Z,100857
2018-09-13T07:12:59.000Z,100861
2018-09-13T07:14:44.000Z,100854
2018-09-13T07:15:59.000Z,100859
2018-09-13T07:17:59.000Z,100858
2018-09-13T07:19:59.000Z,100863
2018-09-13T07:20:59.000Z,100860
2018-09-13T07:22:59.000Z,100862
2018-09-13T07:23:59.000Z,100860
2018-09-13T07:25:59.000Z,100860
2018-09-13T07:27:59.000Z,100867
2018-09-13T07:28:59.000Z,100866
2018-09-13T07:29:59.000Z,100865
2018-09-13T07:31:59.000Z,100867
2018-09-13T07:33:59.000Z,100867
2018-09-13T07:34:59.000Z,100871
2018-09-13T07:36:59.000Z,100871
2018-09-13T07:38:59.000Z,100868
2018-09-13T07:40:59.000Z,100872
2018-09-13T07:42:28.000Z,100870
2018-09-13T07:43:59.000Z,100872
2018-09-13T07:44:59.000Z,100867
2018-09-13T07:46:59.000Z,100872
2018-09-13T07:47:59.000Z,100870
2018-09-13T07:49:59.000Z,100872
2018-09-13T07:51:59.000Z,100874
2018-09-13T07:52:59.000Z,100879
2018-09-13T07:54:59.000Z,100877
2018-09-13T07:55:59.000Z,100882
2018-09-13T07:57:44.000Z,100877
2018-09-13T07:58:59.000Z,100881
2018-09-13T07:59:59.000Z,100880
2018-09-13T08:00:59.000Z,100889
2018-09-13T08:02:59.000Z,100880
2018-09-13T08:03:59.000Z,100886
2018-09-13T08:05:59.000Z,100892
2018-09-13T08:07:44.000Z,100892
2018-09-13T08:08:59.000Z,100893
2018-09-13T08:10:44.000Z,100893
2018-09-13T08:11:59.000Z,100893
2018-09-13T08:13:59.000Z,100885
2018-09-13T08:14:59.000Z,100894
2018-09-13T08:16:59.000Z,100889
2018-09-13T08:17:59.000Z,100893
2018-09-13T08:19:59.000Z,100892
2018-09-13T08:21:59.000Z,100894
2018-09-13T08:23:59.000Z,100893
2018-09-13T08:25:59.000Z,100895
2018-09-13T08:27:59.000Z,100902
2018-09-13T08:28:59.000Z,100900
2018-09-13T08:30:59.000Z,100913
2018-09-13T08:31:59.000Z,100914
2018-09-13T08:33:59.000Z,100921
2018-09-13T08:35:59.000Z,100926
2018-09-13T08:37:59.000Z,100921
2018-09-13T08:39:59.000Z,100922
2018-09-13T08:41:59.000Z,100927
2018-09-13T08:43:59.000Z,100919
2018-09-13T08:44:59.000Z,100923
2018-09-13T08:45:59.000Z,100916
2018-09-13T08:47:59.000Z,100919
2018-09-13T08:48:59.000Z,100906
2018-09-13T08:50:59.000Z,100905
2018-09-13T08:52:59.000Z,100896
2018-09-13T08:54:59.000Z,100894
2018-09-13T08:55:59.000Z,100894
2018-09-13T08:57:59.000Z,100888
2018-09-13T08:58:59.000Z,100892
2018-09-13T09:00:59.000Z,100888
2018-09-13T09:02:59.000Z,100896
2018-09-13T09:04:59.000Z,100895
2018-09-13T09:05:59.000Z,100897
2018-09-13T09:06:59.000Z,100900
2018-09-13T09:07:59.000Z,100898
2018-09-13T09:09:59.000Z,100907
2018-09-13T09:11:59.000Z,100901
2018-09-13T09:12:59.000Z,100903
2018-09-13T09:13:59.000Z,100898
2018-09-13T09:15:44.000Z,100899
2018-09-13T09:16:59.000Z,100899
2018-09-13T09:18:59.000Z,100900
2018-09-13T09:20:59.000Z,100897
2018-09-13T09:22:59.000Z,100897
2018-09-13T09:24:59.000Z,100897
2018-09-13T09:26:59.000Z,100902
2018-09-13T09:27:59.000Z,100896
2018-09-13T09:29:44.000Z,100900
2018-09-13T09:30:59.000Z,100902
2018-09-13T09:32:59.000Z,100898
2018-09-13T09:33:59.000Z,100901
2018-09-13T09:35:59.000Z,100898
2018-09-13T09:37:59.000Z,100911
2018-09-13T09:39:59.000Z,100910
2018-09-13T09:40:59.000Z,100907
2018-09-13T09:42:59.000Z,100909
2018-09-13T09:44:59.000Z,100909
2018-09-13T09:46:59.000Z,100906
2018-09-13T09:48:59.000Z,100910
2018-09-13T09:50:59.000Z,100906
2018-09-13T09:52:44.000Z,100904
2018-09-13T09:53:59.000Z,100913
2018-09-13T09:55:59.000Z,100918
2018-09-13T10:10:00.000Z,100917
2018-09-13T10:11:46.000Z,100914
2018-09-13T10:13:46.000Z,100913
2018-09-13T10:14:46.000Z,100914
2018-09-13T10:16:46.000Z,100914
2018-09-13T10:17:46.000Z,100915
2018-09-13T10:19:46.000Z,100913
2018-09-13T10:20:46.000Z,100911
2018-09-13T10:21:46.000Z,100914
2018-09-13T10:23:46.000Z,100909
2018-09-13T10:25:46.000Z,100916
2018-09-13T10:27:46.000Z,100906
2018-09-13T10:29:46.000Z,100907
2018-09-13T10:31:30.000Z,100906
2018-09-13T10:32:46.000Z,100910
2018-09-13T10:33:46.000Z,100900
2018-09-13T10:34:46.000Z,100901
2018-09-13T10:36:30.000Z,100908
2018-09-13T10:37:46.000Z,100904
2018-09-13T10:39:46.000Z,100909
2018-09-13T10:41:46.000Z,100906
2018-09-13T10:42:46.000Z,100900
2018-09-13T10:43:46.000Z,100901
2018-09-13T10:45:46.000Z,100896
2018-09-13T10:47:30.000Z,100896
2018-09-13T10:48:46.000Z,100896
2018-09-13T10:50:46.000Z,100892
2018-09-13T10:51:46.000Z,100893
2018-09-13T10:53:31.000Z,100893
2018-09-13T10:54:46.000Z,100898
2018-09-13T10:55:46.000Z,100898
2018-09-13T10:57:46.000Z,100894
2018-09-13T10:58:46.000Z,100887
2018-09-13T10:59:46.000Z,100892
2018-09-13T11:01:31.000Z,100889
2018-09-13T11:02:46.000Z,100889
2018-09-13T11:03:46.000Z,100890
2018-09-13T11:05:46.000Z,100896
2018-09-13T11:06:46.000Z,100899
2018-09-13T11:08:46.000Z,100899
2018-09-13T11:10:46.000Z,100900
2018-09-13T11:12:46.000Z,100900
2018-09-13T11:13:46.000Z,100897
2018-09-13T11:14:46.000Z,100901
2018-09-13T11:16:46.000Z,100897
2018-09-13T11:17:46.000Z,100897
2018-09-13T11:19:46.000Z,100898
2018-09-13T11:21:46.000Z,100894
2018-09-13T11:23:46.000Z,100888
2018-09-13T11:25:46.000Z,100888
2018-09-13T11:26:46.000Z,100889
2018-09-13T11:28:46.000Z,100885
2018-09-13T11:29:46.000Z,100881
2018-09-13T11:31:31.000Z,100882
2018-09-13T11:32:46.000Z,100879
2018-09-13T11:33:46.000Z,100877
2018-09-13T11:35:31.000Z,100875
2018-09-13T11:36:46.000Z,100879
2018-09-13T11:38:31.000Z,100883
2018-09-13T11:39:31.000Z,100878
2018-09-13T11:40:46.000Z,100877
2018-09-13T11:42:31.000Z,100878
2018-09-13T11:43:46.000Z,100879
2018-09-13T11:45:46.000Z,100879
2018-09-13T11:47:46.000Z,100882
2018-09-13T11:49:46.000Z,100875
2018-09-13T11:51:46.000Z,100874
2018-09-13T11:53:31.000Z,100872
2018-09-13T11:54:46.000Z,100874
2018-09-13T11:56:15.000Z,100871
2018-09-13T11:57:46.000Z,100875
2018-09-13T11:58:46.000Z,100872
2018-09-13T12:00:46.000Z,100873
2018-09-13T12:01:46.000Z,100871
2018-09-13T12:03:46.000Z,100869
2018-09-13T12:04:46.000Z,100865
2018-09-13T12:06:46.000Z,100869
2018-09-13T12:08:46.000Z,100870
2018-09-13T12:10:46.000Z,100873
2018-09-13T12:12:46.000Z,100872
2018-09-13T12:14:46.000Z,100877
2018-09-13T12:15:46.000Z,100869
2018-09-13T12:16:46.000Z,100871
2018-09-13T12:18:30.000Z,100871
2018-09-13T12:19:46.000Z,100872
2018-09-13T12:21:46.000Z,100866
2018-09-13T12:23:46.000Z,100861
2018-09-13T12:24:46.000Z,100869
2018-09-13T12:26:46.000Z,100865
2018-09-13T12:28:30.000Z,100866
2018-09-13T12:29:46.000Z,100862
2018-09-13T12:31:46.000Z,100854
2018-09-13T12:33:30.000Z,100856
2018-09-13T12:34:46.000Z,100859
2018-09-13T12:36:46.000Z,100859
2018-09-13T12:38:46.000Z,100865
2018-09-13T12:40:46.000Z,100854
2018-09-13T12:42:46.000Z,100859
2018-09-13T12:44:46.000Z,100861
2018-09-13T12:45:46.000Z,100859
2018-09-13T12:47:46.000Z,100858
2018-09-13T12:49:46.000Z,100864
2018-09-13T12:51:46.000Z,100857
2018-09-13T12:52:46.000Z,100862
2018-09-13T12:54:46.000Z,100856
2018-09-13T12:56:46.000Z,100854
2018-09-13T12:58:46.000Z,100850
2018-09-13T13:00:46.000Z,100846
2018-09-13T13:02:46.000Z,100844
2018-09-13T13:04:46.000Z,100844
2018-09-13T13:06:46.000Z,100841
2018-09-13T13:07:46.000Z,100848
2018-09-13T13:09:46.000Z,100840
2018-09-13T13:10:46.000Z,100842
2018-09-13T13:12:46.000Z,100837
2018-09-13T13:14:46.000Z,100836
2018-09-13T13:16:46.000Z,100844
2018-09-13T13:18:46.000Z,100839
2018-09-13T13:20:46.000Z,100834
2018-09-13T13:22:46.000Z,100839
2018-09-13T13:24:31.000Z,100835
2018-09-13T13:25:46.000Z,100831
2018-09-13T13:27:46.000Z,100820
2018-09-13T13:29:46.000Z,100828
2018-09-13T13:31:46.000Z,100822
2018-09-13T13:32:46.000Z,100825
2018-09-13T13:34:46.000Z,100823
2018-09-13T13:36:46.000Z,100822
2018-09-13T13:38:46.000Z,100823
2018-09-13T13:40:46.000Z,100820
2018-09-13T13:41:46.000Z,100824
2018-09-13T13:43:46.000Z,100819
2018-09-13T13:45:46.000Z,100822
2018-09-13T13:47:46.000Z,100822
2018-09-13T13:48:46.000Z,100820
2018-09-13T13:49:46.000Z,100819
2018-09-13T13:51:31.000Z,100817
2018-09-13T13:52:46.000Z,100816
2018-09-13T13:54:46.000Z,100813
2018-09-13T13:55:46.000Z,100818
2018-09-13T13:56:46.000Z,100815
2018-09-13T13:58:46.000Z,100813
2018-09-13T13:59:46.000Z,100816
2018-09-13T14:01:46.000Z,100815
2018-09-13T14:03:31.000Z,100817
2018-09-13T14:04:46.000Z,100812
2018-09-13T14:06:46.000Z,100810
2018-09-13T14:07:46.000Z,100811
2018-09-13T14:08:46.000Z,100814
2018-09-13T14:10:46.000Z,100816
2018-09-13T14:11:46.000Z,100808
2018-09-13T14:13:31.000Z,100811
2018-09-13T14:14:46.000Z,100813
2018-09-13T14:15:46.000Z,100808
2018-09-13T14:16:46.000Z,100803
2018-09-13T14:18:46.000Z,100803
2018-09-13T14:20:46.000Z,100798
2018-09-13T14:21:46.000Z,100802
2018-09-13T14:22:46.000Z,100803
2018-09-13T14:24:46.000Z,100801
2018-09-13T14:26:31.000Z,100801
2018-09-13T14:27:46.000Z,100802
2018-09-13T14:28:46.000Z,100797
2018-09-13T14:30:46.000Z,100795
2018-09-13T14:32:46.000Z,100797
2018-09-13T14:33:46.000Z,100795
2018-09-13T14:34:46.000Z,100791
2018-09-13T14:36:46.000Z,100794
2018-09-13T14:38:46.000Z,100789
2018-09-13T14:40:46.000Z,100788
2018-09-13T14:42:46.000Z,100793
2018-09-13T14:44:46.000Z,100791
2018-09-13T14:45:46.000Z,100788
2018-09-13T14:47:46.000Z,100786
2018-09-13T14:49:46.000Z,100784
2018-09-13T14:50:46.000Z,100782
2018-09-13T14:52:46.000Z,100776
2018-09-13T14:54:46.000Z,100775
2018-09-13T14:55:46.000Z,100776
2018-09-13T14:57:46.000Z,100776
2018-09-13T14:59:46.000Z,100775
2018-09-13T15:01:46.000Z,100774
2018-09-13T15:03:46.000Z,100778
2018-09-13T15:05:46.000Z,100768
2018-09-13T15:07:46.000Z,100774
2018-09-13T15:08:46.000Z,100774
2018-09-13T15:09:46.000Z,100773
2018-09-13T15:11:46.000Z,100775
2018-09-13T15:13:30.000Z,100774
2018-09-13T15:14:46.000Z,100772
2018-09-13T15:16:46.000Z,100773
2018-09-13T15:18:46.000Z,100770
2018-09-13T15:20:46.000Z,100770
2018-09-13T15:21:46.000Z,100772
2018-09-13T15:23:46.000Z,100774
2018-09-13T15:25:30.000Z,100769
2018-09-13T15:26:46.000Z,100760
2018-09-13T15:27:46.000Z,100764
2018-09-13T15:29:46.000Z,100761
2018-09-13T15:31:46.000Z,100760
2018-09-13T15:33:46.000Z,100762
2018-09-13T15:34:46.000Z,100764
2018-09-13T15:36:46.000Z,100763
2018-09-13T15:37:46.000Z,100765
2018-09-13T15:39:46.000Z,100762
2018-09-13T15:41:46.000Z,100765
2018-09-13T15:43:46.000Z,100758
2018-09-13T15:45:46.000Z,100761
2018-09-13T15:47:46.000Z,100764
2018-09-13T15:49:46.000Z,100766
2018-09-13T15:51:46.000Z,100764
2018-09-13T15:52:46.000Z,100760
2018-09-13T15:54:46.000Z,100761
2018-09-13T15:56:30.000Z,100766
2018-09-13T15:57:46.000Z,100761
2018-09-13T15:59:30.000Z,100765
2018-09-13T16:00:46.000Z,100769
2018-09-13T16:02:46.000Z,100768
2018-09-13T16:04:46.000Z,100762
2018-09-13T16:06:15.000Z,100766
2018-09-13T16:07:46.000Z,100763
2018-09-13T16:09:46.000Z,100769
2018-09-13T16:11:46.000Z,100772
2018-09-13T16:13:46.000Z,100767
2018-09-13T16:15:46.000Z,100772
2018-09-13T16:17:46.000Z,100774
2018-09-13T16:18:46.000Z,100772
2018-09-13T16:20:46.000Z,100764
2018-09-13T16:22:46.000Z,100765
2018-09-13T16:24:46.000Z,100763
2018-09-13T16:26:46.000Z,100763
2018-09-13T16:28:46.000Z,100760
2018-09-13T16:29:46.000Z,100759
2018-09-13T16:31:46.000Z,100761
2018-09-13T16:33:46.000Z,100759
2018-09-13T16:34:46.000Z,100757
2018-09-13T16:35:46.000Z,100755
2018-09-13T16:37:46.000Z,100755
2018-09-13T16:38:46.000Z,100758
2018-09-13T16:40:46.000Z,100759
2018-09-13T16:42:46.000Z,100754
2018-09-13T16:44:46.000Z,100757
2018-09-13T16:46:46.000Z,100759
2018-09-13T16:47:46.000Z,100756
2018-09-13T16:49:46.000Z,100756
2018-09-13T16:50:46.000Z,100758
2018-09-13T16:51:46.000Z,100759
2018-09-13T16:53:46.000Z,100763
2018-09-13T16:55:46.000Z,100762
2018-09-13T16:57:46.000Z,100766
2018-09-13T16:58:46.000Z,100765
2018-09-13T17:00:46.000Z,100764
2018-09-13T17:01:46.000Z,100766
2018-09-13T17:03:46.000Z,100772
2018-09-13T17:05:46.000Z,100767
2018-09-13T17:07:46.000Z,100770
2018-09-13T17:08:46.000Z,100772
2018-09-13T17:09:46.000Z,100770
2018-09-13T17:11:46.000Z,100770
2018-09-13T17:13:46.000Z,100778
2018-09-13T17:14:46.000Z,100771
2018-09-13T17:16:46.000Z,100773
2018-09-13T17:18:31.000Z,100780
2018-09-13T17:19:46.000Z,100774
2018-09-13T17:21:46.000Z,100779
2018-09-13T17:23:46.000Z,100777
2018-09-13T17:24:46.000Z,100779
2018-09-13T17:26:46.000Z,100776
2018-09-13T17:28:46.000Z,100773
2018-09-13T17:30:46.000Z,100773
2018-09-13T17:32:46.000Z,100772
2018-09-13T17:34:46.000Z,100774
2018-09-13T17:36:31.000Z,100772
2018-09-13T17:37:46.000Z,100774
2018-09-13T17:39:46.000Z,100779
2018-09-13T17:41:15.000Z,100778
2018-09-13T17:42:46.000Z,100778
2018-09-13T17:44:31.000Z,100781
2018-09-13T17:45:46.000Z,100781
2018-09-13T17:47:46.000Z,100781
2018-09-13T17:48:46.000Z,100780
2018-09-13T17:50:46.000Z,100781
2018-09-13T17:52:46.000Z,100784
2018-09-13T17:54:46.000Z,100783
2018-09-13T17:55:46.000Z,100783
2018-09-13T17:57:46.000Z,100781
2018-09-13T17:59:46.000Z,100785
2018-09-13T18:01:46.000Z,100785
2018-09-13T18:03:46.000Z,100787
2018-09-13T18:05:46.000Z,100787
2018-09-13T18:07:31.000Z,100785
2018-09-13T18:08:46.000Z,100790
2018-09-13T18:10:46.000Z,100788
2018-09-13T18:11:46.000Z,100791
2018-09-13T18:13:46.000Z,100787
2018-09-13T18:15:46.000Z,100789
2018-09-13T18:17:46.000Z,100790
2018-09-13T18:19:46.000Z,100788
2018-09-13T18:21:46.000Z,100788
2018-09-13T18:23:46.000Z,100791
2018-09-13T18:24:46.000Z,100792
2018-09-13T18:26:46.000Z,100793
2018-09-13T18:28:31.000Z,100797
2018-09-13T18:29:46.000Z,100800
2018-09-13T18:31:31.000Z,100796
2018-09-13T18:32:46.000Z,100803
2018-09-13T18:34:46.000Z,100802
2018-09-13T18:35:46.000Z,100804
2018-09-13T18:37:46.000Z,100811
2018-09-13T18:39:46.000Z,100810
2018-09-13T18:41:31.000Z,100808
2018-09-13T18:42:46.000Z,100813
2018-09-13T18:44:46.000Z,100811
2018-09-13T18:45:46.000Z,100812
2018-09-13T18:47:46.000Z,100811
2018-09-13T18:48:46.000Z,100814
2018-09-13T18:50:46.000Z,100811
2018-09-13T18:52:46.000Z,100818
2018-09-13T18:53:46.000Z,100817
2018-09-13T18:54:46.000Z,100819
2018-09-13T18:56:46.000Z,100819
2018-09-13T18:58:46.000Z,100819
2018-09-13T18:59:46.000Z,100823
2018-09-13T19:01:46.000Z,100825
2018-09-13T19:03:46.000Z,100829
2018-09-13T19:05:46.000Z,100824
2018-09-13T19:07:46.000Z,100829
2018-09-13T19:09:46.000Z,100830
2018-09-13T19:11:46.000Z,100830
2018-09-13T19:13:46.000Z,100826
2018-09-13T19:17:46.000Z,100830
2018-09-13T19:19:46.000Z,100837
2018-09-13T19:20:46.000Z,100827
2018-09-13T19:21:46.000Z,100836
2018-09-13T19:23:46.000Z,100833
2018-09-13T19:25:46.000Z,100842
2018-09-13T19:27:46.000Z,100837
2018-09-13T19:28:46.000Z,100842
2018-09-13T19:30:46.000Z,100838
2018-09-13T19:31:46.000Z,100835
2018-09-13T19:33:30.000Z,100838
2018-09-13T19:34:46.000Z,100841
2018-09-13T19:35:46.000Z,100841
2018-09-13T19:37:46.000Z,100841
2018-09-13T19:39:46.000Z,100836
2018-09-13T19:41:15.000Z,100844
2018-09-13T19:42:46.000Z,100845
2018-09-13T19:43:46.000Z,100844
2018-09-13T19:45:46.000Z,100852
2018-09-13T19:47:46.000Z,100850
2018-09-13T19:49:30.000Z,100850
2018-09-13T19:50:46.000Z,100852
2018-09-13T19:52:30.000Z,100849
2018-09-13T19:53:46.000Z,100848
2018-09-13T19:54:46.000Z,100846
2018-09-13T19:56:46.000Z,100846
2018-09-13T19:57:46.000Z,100847
2018-09-13T19:59:46.000Z,100850
2018-09-13T20:01:15.000Z,100846
2018-09-13T20:02:46.000Z,100852
2018-09-13T20:03:46.000Z,100851
2018-09-13T20:05:46.000Z,100855
2018-09-13T20:06:46.000Z,100853
2018-09-13T20:07:46.000Z,100848
2018-09-13T20:09:46.000Z,100845
2018-09-13T20:11:30.000Z,100854
2018-09-13T20:12:46.000Z,100849
2018-09-13T20:13:46.000Z,100849
2018-09-13T20:15:15.000Z,100855
2018-09-13T20:16:46.000Z,100862
2018-09-13T20:18:46.000Z,100858
2018-09-13T20:20:46.000Z,100860
2018-09-13T20:22:46.000Z,100854
2018-09-13T20:23:46.000Z,100853
2018-09-13T20:25:46.000Z,100856
2018-09-13T20:27:46.000Z,100854
2018-09-13T20:29:46.000Z,100852
2018-09-13T20:31:46.000Z,100855
2018-09-13T20:33:46.000Z,100854
2018-09-13T20:35:46.000Z,100848